Time;durP1;ratioP1;P1;durP2;ratioP2;P2;SDS_P1;SDS_P2;PMS_P1;PMS_P2;Temp;Humidity;BMP_temperature;BMP_pressure;BME280_temperature;BME280_humidity;BME280_pressure;Samples;Min_cycle;Max_cycle;Signal;HPM_P1;HPM_P2
2022/01/08 00:02:23;;;;;;;6.13;2.45;;;1.90;99.90;;;;;;5090736;28;20047;-76
2022/01/08 00:04:48;;;;;;;8.70;2.08;;;1.80;99.90;;;;;;5092508;28;20044;-78
2022/01/08 00:07:14;;;;;;;3.67;1.67;;;1.90;99.90;;;;;;5098551;28;20489;-77
2022/01/08 00:09:40;;;;;;;7.35;1.95;;;1.80;99.90;;;;;;5113163;28;20043;-78
2022/01/08 00:12:06;;;;;;;3.92;2.03;;;1.80;99.90;;;;;;5112976;28;20038;-78
2022/01/08 00:14:31;;;;;;;9.65;3.90;;;1.80;99.90;;;;;;5111514;28;20043;-77
2022/01/08 00:16:58;;;;;;;13.15;6.50;;;1.70;99.90;;;;;;5092679;28;20500;-78
2022/01/08 00:19:24;;;;;;;13.93;5.53;;;1.60;99.90;;;;;;5091091;28;20127;-78
2022/01/08 00:21:49;;;;;;;9.13;2.92;;;1.60;99.90;;;;;;5109980;28;20111;-79
2022/01/08 00:24:15;;;;;;;10.35;2.25;;;1.50;99.90;;;;;;5094103;28;20469;-79
2022/01/08 00:26:41;;;;;;;9.65;2.88;;;1.60;99.90;;;;;;5097888;28;20040;-77
2022/01/08 00:29:07;;;;;;;12.27;2.50;;;1.70;99.90;;;;;;5074609;28;20414;-79
2022/01/08 00:31:32;;;;;;;8.10;2.50;;;1.60;99.90;;;;;;5073912;28;20048;-79
2022/01/08 00:33:58;;;;;;;4.90;2.10;;;1.70;99.90;;;;;;5092075;28;20048;-78
2022/01/08 00:36:24;;;;;;;8.95;2.85;;;1.80;99.90;;;;;;5079208;28;20547;-80
2022/01/08 00:38:49;;;;;;;9.80;3.00;;;1.60;99.90;;;;;;5092404;28;20131;-79
2022/01/08 00:41:15;;;;;;;8.98;3.33;;;1.60;99.90;;;;;;5073990;28;20036;-78
2022/01/08 00:43:41;;;;;;;10.73;4.32;;;1.50;99.90;;;;;;5091967;28;20090;-78
2022/01/08 00:46:06;;;;;;;10.32;2.70;;;1.60;99.90;;;;;;5091428;28;20075;-78
2022/01/08 00:48:32;;;;;;;6.30;2.28;;;1.70;99.90;;;;;;5090570;28;20036;-80
2022/01/08 00:50:58;;;;;;;8.45;2.05;;;1.70;99.90;;;;;;5096962;28;20039;-79
2022/01/08 00:53:23;;;;;;;10.60;2.60;;;1.60;99.90;;;;;;5096256;28;20036;-79
2022/01/08 00:55:49;;;;;;;7.57;2.50;;;1.70;99.90;;;;;;5091569;28;20036;-77
2022/01/08 00:58:14;;;;;;;7.18;2.10;;;1.50;99.90;;;;;;5091222;28;20051;-79
2022/01/08 01:00:41;;;;;;;5.75;1.80;;;1.60;99.90;;;;;;5107002;28;20508;-79
2022/01/08 01:03:07;;;;;;;8.98;1.98;;;1.50;99.90;;;;;;5110505;28;20043;-78
2022/01/08 01:05:33;;;;;;;8.63;2.15;;;1.60;99.90;;;;;;5075851;28;20435;-79
2022/01/08 01:07:58;;;;;;;6.55;1.75;;;1.50;99.90;;;;;;5110479;28;20119;-80
2022/01/08 01:10:24;;;;;;;8.27;3.13;;;1.60;99.90;;;;;;5111593;28;20127;-78
2022/01/08 01:12:50;;;;;;;6.35;2.42;;;1.70;99.90;;;;;;5092609;28;20473;-79
2022/01/08 01:15:16;;;;;;;6.60;3.05;;;1.60;99.90;;;;;;5085752;28;20047;-79
2022/01/08 01:17:44;;;;;;;10.45;2.42;;;1.80;99.90;;;;;;5090764;28;20093;-79
2022/01/08 01:20:13;;;;;;;4.45;1.90;;;1.70;99.90;;;;;;5091032;28;20048;-78
2022/01/08 01:25:10;;;;;;;4.25;1.98;;;1.90;99.90;;;;;;5093316;28;20519;-80
2022/01/08 01:30:32;;;;;;;5.40;1.33;;;2.00;99.90;;;;;;5072377;28;20551;-80
2022/01/08 01:41:23;;;;;;;3.10;1.48;;;1.80;99.90;;;;;;5101251;28;20047;-81
2022/01/08 01:48:52;;;;;;;8.90;2.55;;;1.60;99.90;;;;;;5072601;28;20048;-80
2022/01/08 01:51:20;;;;;;;1.70;1.05;;;1.70;99.90;;;;;;5077715;28;20078;-81
2022/01/08 01:53:46;;;;;;;3.67;0.75;;;1.70;99.90;;;;;;5090569;28;20066;-80
2022/01/08 01:56:15;;;;;;;8.63;1.15;;;1.70;99.90;;;;;;5091041;28;20047;-80
2022/01/08 01:58:41;;;;;;;6.03;1.05;;;1.50;99.90;;;;;;5091175;28;20051;-82
2022/01/08 02:01:06;;;;;;;1.50;0.70;;;1.50;99.90;;;;;;5090818;28;20032;-81
2022/01/08 02:03:32;;;;;;;6.10;1.73;;;1.30;99.90;;;;;;5054857;28;20052;-82
2022/01/08 02:05:58;;;;;;;4.20;0.80;;;1.40;99.90;;;;;;5095699;28;20043;-80
2022/01/08 02:08:23;;;;;;;5.57;1.33;;;1.30;99.90;;;;;;5092875;28;20036;-79
2022/01/08 02:10:49;;;;;;;7.43;1.08;;;1.20;99.90;;;;;;5111262;28;20047;-79
2022/01/08 02:13:26;;;;;;;9.65;1.35;;;1.30;99.90;;;;;;5111282;28;20070;-80
2022/01/08 02:15:54;;;;;;;6.78;2.47;;;1.30;99.90;;;;;;5089694;28;20482;-80
2022/01/08 02:18:20;;;;;;;6.50;1.63;;;1.20;99.90;;;;;;5090705;28;20044;-81
2022/01/08 02:20:46;;;;;;;2.08;0.40;;;1.30;99.90;;;;;;5091850;28;20052;-81
2022/01/08 02:23:12;;;;;;;4.40;1.25;;;1.30;99.90;;;;;;5075656;28;20044;-81
2022/01/08 02:25:37;;;;;;;4.22;1.33;;;1.30;99.90;;;;;;5086137;28;20083;-79
2022/01/08 02:28:04;;;;;;;7.10;1.50;;;1.30;99.90;;;;;;5093516;28;20819;-80
2022/01/08 02:30:30;;;;;;;4.60;0.52;;;1.30;99.90;;;;;;5093733;28;20044;-80
2022/01/08 02:32:55;;;;;;;2.38;0.98;;;1.50;99.90;;;;;;5091340;28;20105;-79
2022/01/08 02:35:22;;;;;;;1.73;0.88;;;1.50;99.90;;;;;;5099419;28;20051;-79
2022/01/08 02:37:49;;;;;;;4.60;0.80;;;1.60;99.90;;;;;;5093747;28;20131;-79
2022/01/08 02:40:15;;;;;;;5.47;0.55;;;1.60;99.90;;;;;;5090142;28;20119;-81
2022/01/08 02:42:50;;;;;;;8.35;1.45;;;1.50;99.90;;;;;;5090520;28;20577;-80
2022/01/08 02:45:17;;;;;;;4.32;1.10;;;1.50;99.90;;;;;;5103372;28;20055;-80
2022/01/08 02:47:43;;;;;;;3.65;1.17;;;1.50;99.90;;;;;;5120722;28;20536;-81
2022/01/08 02:50:09;;;;;;;4.40;0.50;;;1.60;99.90;;;;;;5097853;28;20039;-80
2022/01/08 02:52:39;;;;;;;6.68;2.53;;;1.60;99.90;;;;;;5113608;28;20054;-80
2022/01/08 02:55:05;;;;;;;4.28;0.70;;;1.60;99.90;;;;;;5114150;28;20133;-81
2022/01/08 02:57:31;;;;;;;2.63;0.77;;;1.50;99.90;;;;;;5109782;28;20046;-81
2022/01/08 02:59:56;;;;;;;6.63;0.85;;;1.50;99.90;;;;;;5113915;28;20040;-81
2022/01/08 03:02:22;;;;;;;3.92;1.25;;;1.50;99.90;;;;;;5112820;28;20044;-80
2022/01/08 03:04:52;;;;;;;7.30;0.80;;;1.40;99.90;;;;;;5114261;28;20379;-79
2022/01/08 03:07:18;;;;;;;5.18;1.92;;;1.40;99.90;;;;;;5112744;28;20053;-80
2022/01/08 03:09:46;;;;;;;5.18;1.33;;;1.40;99.90;;;;;;5113925;28;20114;-77
2022/01/08 03:12:12;;;;;;;3.88;0.70;;;1.30;99.90;;;;;;5096110;28;20050;-81
2022/01/08 03:14:37;;;;;;;3.50;1.52;;;1.30;99.90;;;;;;5087257;28;20043;-80
2022/01/08 03:17:03;;;;;;;3.47;0.80;;;1.30;99.90;;;;;;5107703;28;20127;-80
2022/01/08 03:19:29;;;;;;;12.40;1.60;;;1.50;99.90;;;;;;5076073;28;20032;-80
2022/01/08 03:21:57;;;;;;;3.72;0.98;;;1.30;99.90;;;;;;5107523;28;20435;-79
2022/01/08 03:24:27;;;;;;;3.38;1.02;;;1.40;99.90;;;;;;5113259;28;20046;-79
2022/01/08 03:26:54;;;;;;;8.35;1.10;;;1.40;99.90;;;;;;5091301;28;20044;-78
2022/01/08 03:29:20;;;;;;;4.65;1.05;;;1.20;99.90;;;;;;5092472;28;20089;-80
2022/01/08 03:31:45;;;;;;;7.80;1.80;;;1.20;99.90;;;;;;5092049;28;20087;-80
2022/01/08 03:34:11;;;;;;;7.05;0.75;;;1.20;99.90;;;;;;5093181;28;20036;-80
2022/01/08 03:36:36;;;;;;;4.07;1.20;;;1.20;99.90;;;;;;5103585;28;20154;-80
2022/01/08 03:39:02;;;;;;;9.77;1.30;;;1.20;99.90;;;;;;5094975;28;20074;-78
2022/01/08 03:41:28;;;;;;;2.70;1.13;;;1.10;99.90;;;;;;5113023;28;20046;-80
2022/01/08 03:43:54;;;;;;;1.52;0.80;;;1.10;99.90;;;;;;5111833;28;20043;-80
2022/01/08 03:46:21;;;;;;;5.45;1.15;;;1.20;99.90;;;;;;5102892;28;20040;-79
2022/01/08 03:51:26;;;;;;;3.63;0.93;;;1.30;99.90;;;;;;5111674;28;20055;-79
2022/01/08 03:53:51;;;;;;;7.75;1.30;;;1.10;99.90;;;;;;5094487;28;20036;-80
2022/01/08 03:56:17;;;;;;;5.35;1.25;;;1.10;99.90;;;;;;5105851;28;20036;-79
2022/01/08 03:58:43;;;;;;;13.73;2.58;;;1.20;99.90;;;;;;5074901;28;20052;-80
2022/01/08 04:01:08;;;;;;;3.28;1.40;;;1.30;99.90;;;;;;5074535;28;20032;-80
2022/01/08 04:03:34;;;;;;;1.58;1.10;;;1.40;99.90;;;;;;5091348;28;20048;-79
2022/01/08 04:05:59;;;;;;;5.82;1.75;;;1.40;99.90;;;;;;5086145;28;20047;-80
2022/01/08 04:08:26;;;;;;;6.15;1.35;;;1.50;99.90;;;;;;5092818;28;20032;-80
2022/01/08 04:10:51;;;;;;;6.15;1.60;;;1.50;99.90;;;;;;5083441;28;20043;-80
2022/01/08 04:13:22;;;;;;;15.77;2.67;;;1.40;99.90;;;;;;5096136;28;20393;-81
2022/01/08 04:15:51;;;;;;;6.30;1.30;;;1.50;99.90;;;;;;5106859;28;20077;-79
2022/01/08 04:18:17;;;;;;;4.35;1.75;;;1.60;99.90;;;;;;5091678;28;20040;-79
2022/01/08 04:23:27;;;;;;;3.60;1.42;;;1.40;99.90;;;;;;5091637;28;20052;-80
2022/01/08 04:25:52;;;;;;;7.57;1.85;;;1.40;99.90;;;;;;5097244;28;20058;-78
2022/01/08 04:28:18;;;;;;;6.15;1.52;;;1.50;99.90;;;;;;5111948;28;20036;-80
2022/01/08 04:30:44;;;;;;;10.50;1.85;;;1.50;99.90;;;;;;5092118;28;20051;-78
2022/01/08 04:33:10;;;;;;;7.00;1.42;;;1.40;99.90;;;;;;5073231;28;20048;-80
2022/01/08 04:35:36;;;;;;;5.80;2.30;;;1.40;99.90;;;;;;5094225;28;20077;-79
2022/01/08 04:38:02;;;;;;;5.80;1.25;;;1.30;99.90;;;;;;5112084;28;20056;-78
2022/01/08 04:40:28;;;;;;;3.17;0.88;;;1.40;99.90;;;;;;5112095;28;20040;-81
2022/01/08 04:42:54;;;;;;;10.93;2.88;;;1.30;99.90;;;;;;5089361;28;20036;-79
2022/01/08 04:45:21;;;;;;;6.90;0.98;;;1.40;99.90;;;;;;5091380;28;20086;-80
2022/01/08 04:47:47;;;;;;;7.53;1.70;;;1.30;99.90;;;;;;5090500;28;20044;-80
2022/01/08 04:50:12;;;;;;;12.90;4.00;;;1.40;99.90;;;;;;5092064;28;20043;-80
2022/01/08 04:52:39;;;;;;;3.42;1.45;;;1.40;99.90;;;;;;5110698;28;20397;-79
2022/01/08 04:55:06;;;;;;;3.20;0.63;;;1.50;99.90;;;;;;5112033;28;20440;-80
2022/01/08 04:57:31;;;;;;;15.23;1.75;;;1.70;99.90;;;;;;5101376;28;20524;-80
2022/01/08 04:59:57;;;;;;;4.30;0.52;;;1.70;99.90;;;;;;5111574;28;20087;-81
2022/01/08 05:02:22;;;;;;;2.60;0.82;;;1.60;99.90;;;;;;5110623;28;20123;-80
2022/01/08 05:04:48;;;;;;;2.05;0.70;;;1.70;99.90;;;;;;5092463;28;20135;-80
2022/01/08 05:07:14;;;;;;;6.78;1.25;;;1.50;99.90;;;;;;5090457;28;20089;-77
2022/01/08 05:09:39;;;;;;;4.65;2.58;;;1.50;99.90;;;;;;5091505;28;20040;-79
2022/01/08 05:12:05;;;;;;;7.35;1.63;;;1.40;99.90;;;;;;5091374;28;20039;-81
2022/01/08 05:14:31;;;;;;;6.63;1.63;;;1.50;99.90;;;;;;5072609;28;20078;-80
2022/01/08 05:17:01;;;;;;;5.57;1.75;;;1.40;99.90;;;;;;5105167;28;20039;-79
2022/01/08 05:19:50;;;;;;;;;;;1.40;99.90;;;;;;5094499;28;20069;-81
2022/01/08 05:22:22;;;;;;;3.63;0.95;;;1.30;99.90;;;;;;5097437;28;20690;-80
2022/01/08 05:24:48;;;;;;;2.58;1.00;;;1.20;99.90;;;;;;5081238;28;20185;-80
2022/01/08 05:27:17;;;;;;;2.75;1.00;;;1.20;99.90;;;;;;5095151;28;20505;-75
2022/01/08 05:29:48;;;;;;;5.72;1.85;;;1.00;99.90;;;;;;5091231;28;20040;-80
2022/01/08 05:32:16;;;;;;;3.95;1.30;;;1.10;99.90;;;;;;5073278;28;20070;-74
2022/01/08 05:34:49;;;;;;;7.05;1.30;;;1.00;99.90;;;;;;5096919;28;20561;-80
2022/01/08 05:37:16;;;;;;;8.07;1.02;;;1.00;99.90;;;;;;5073571;28;20091;-80
2022/01/08 05:39:42;;;;;;;4.18;0.80;;;0.90;99.90;;;;;;5090926;28;20115;-81
2022/01/08 05:42:08;;;;;;;5.30;1.13;;;0.80;99.90;;;;;;5090912;28;20126;-80
2022/01/08 05:44:34;;;;;;;4.10;1.23;;;0.80;99.90;;;;;;5089866;28;20051;-80
2022/01/08 05:47:00;;;;;;;5.70;1.40;;;0.90;99.90;;;;;;5105171;28;20062;-80
2022/01/08 05:49:25;;;;;;;9.20;1.98;;;0.80;99.90;;;;;;5091067;28;20082;-79
2022/01/08 05:51:51;;;;;;;9.32;3.85;;;0.80;99.90;;;;;;5090766;28;20036;-80
2022/01/08 05:54:16;;;;;;;9.95;2.38;;;0.80;99.90;;;;;;5091162;28;20050;-80
2022/01/08 05:56:42;;;;;;;7.25;2.53;;;0.90;99.90;;;;;;5088913;28;20055;-79
2022/01/08 05:59:08;;;;;;;5.47;2.20;;;0.80;99.90;;;;;;5090633;28;20044;-79
2022/01/08 06:01:34;;;;;;;8.38;4.07;;;0.70;99.90;;;;;;5089117;28;20052;-79
2022/01/08 06:04:03;;;;;;;12.40;3.03;;;0.80;99.90;;;;;;5090042;28;20036;-80
2022/01/08 06:06:29;;;;;;;5.28;2.58;;;0.70;99.90;;;;;;5089900;28;20130;-81
2022/01/08 06:08:55;;;;;;;7.57;3.35;;;0.70;99.90;;;;;;5104499;28;20426;-78
2022/01/08 06:11:21;;;;;;;13.02;4.90;;;0.60;99.90;;;;;;5110233;28;20039;-79
2022/01/08 06:13:47;;;;;;;9.88;3.42;;;0.70;99.90;;;;;;5110599;28;20039;-79
2022/01/08 06:16:12;;;;;;;8.95;3.00;;;0.50;99.90;;;;;;5100774;28;20505;-79
2022/01/08 06:18:39;;;;;;;7.80;3.20;;;0.50;99.90;;;;;;5093431;28;20542;-80
2022/01/08 06:21:05;;;;;;;15.43;3.70;;;0.60;99.90;;;;;;5077694;28;20445;-79
2022/01/08 06:23:31;;;;;;;11.05;2.78;;;0.60;99.90;;;;;;5093800;28;20040;-80
2022/01/08 06:25:57;;;;;;;8.10;2.67;;;0.50;99.90;;;;;;5085658;28;20044;-78
2022/01/08 06:28:23;;;;;;;7.25;3.40;;;0.50;99.90;;;;;;5113884;28;20125;-78
2022/01/08 06:30:49;;;;;;;10.10;3.42;;;0.40;99.90;;;;;;5096551;28;20134;-79
2022/01/08 06:33:15;;;;;;;10.43;3.05;;;0.40;99.90;;;;;;5100809;28;20078;-80
2022/01/08 06:35:41;;;;;;;12.88;3.60;;;0.40;99.90;;;;;;5077176;28;20062;-79
2022/01/08 06:38:07;;;;;;;7.80;4.07;;;0.40;99.90;;;;;;5094166;28;20051;-80
2022/01/08 06:40:33;;;;;;;10.00;4.65;;;0.50;99.90;;;;;;5093740;28;20553;-81
2022/01/08 06:42:58;;;;;;;12.90;3.33;;;0.40;99.90;;;;;;5075597;28;20043;-79
2022/01/08 06:45:24;;;;;;;19.95;5.18;;;0.50;99.90;;;;;;5074992;28;20352;-78
2022/01/08 06:47:50;;;;;;;15.43;3.75;;;0.40;99.90;;;;;;5099164;28;20028;-79
2022/01/08 06:50:15;;;;;;;10.07;3.00;;;0.40;99.90;;;;;;5094389;28;20084;-79
2022/01/08 06:52:41;;;;;;;7.07;4.20;;;0.40;99.90;;;;;;5114178;28;20470;-80
2022/01/08 06:55:07;;;;;;;15.63;4.97;;;0.40;99.90;;;;;;5112106;28;20048;-80
2022/01/08 06:57:33;;;;;;;12.43;4.07;;;0.30;99.90;;;;;;5093275;28;20080;-79
2022/01/08 07:00:01;;;;;;;12.52;4.72;;;0.40;99.90;;;;;;5094067;28;20071;-79
2022/01/08 07:02:27;;;;;;;13.68;4.57;;;0.30;99.90;;;;;;5102481;28;20048;-79
2022/01/08 07:04:52;;;;;;;11.75;4.55;;;0.50;99.90;;;;;;5095697;28;20035;-79
2022/01/08 07:07:18;;;;;;;11.07;3.50;;;0.40;99.90;;;;;;5077998;28;20085;-79
2022/01/08 07:09:44;;;;;;;10.30;4.57;;;0.30;99.90;;;;;;5075566;28;20094;-78
2022/01/08 07:12:09;;;;;;;10.43;3.97;;;0.30;99.90;;;;;;5093526;28;20043;-79
2022/01/08 07:14:35;;;;;;;21.10;3.97;;;0.40;99.90;;;;;;5093237;28;20043;-79
2022/01/08 07:17:00;;;;;;;11.38;3.58;;;0.30;99.90;;;;;;5110038;28;20032;-80
2022/01/08 07:19:26;;;;;;;15.68;4.60;;;0.30;99.90;;;;;;5113628;28;20043;-81
2022/01/08 07:21:52;;;;;;;9.55;3.80;;;0.30;99.90;;;;;;5112517;28;20453;-79
2022/01/08 07:24:17;;;;;;;9.07;3.90;;;0.30;99.90;;;;;;5113271;28;20143;-82
2022/01/08 07:26:43;;;;;;;7.20;3.45;;;0.40;99.90;;;;;;5091237;28;20051;-79
2022/01/08 07:29:09;;;;;;;12.32;4.32;;;0.30;99.90;;;;;;5092248;28;20505;-77
2022/01/08 07:31:34;;;;;;;33.38;5.50;;;0.30;99.90;;;;;;5091537;28;20486;-79
2022/01/08 07:34:00;;;;;;;11.48;3.78;;;0.40;99.90;;;;;;5093021;28;20050;-78
2022/01/08 07:36:26;;;;;;;11.20;3.88;;;0.40;99.90;;;;;;5095700;28;20490;-79
2022/01/08 07:38:51;;;;;;;17.88;4.32;;;0.50;99.90;;;;;;5109483;28;20397;-78
2022/01/08 07:41:17;;;;;;;20.48;5.80;;;0.50;99.90;;;;;;5100944;28;20093;-80
2022/01/08 07:43:43;;;;;;;18.45;4.28;;;0.50;99.90;;;;;;5092960;28;20044;-79
2022/01/08 07:46:08;;;;;;;11.50;5.68;;;0.50;99.90;;;;;;5094806;28;20493;-79
2022/01/08 07:48:34;;;;;;;12.23;4.50;;;0.40;99.90;;;;;;5112748;28;20397;-79
2022/01/08 07:51:00;;;;;;;14.70;5.47;;;0.50;99.90;;;;;;5089359;28;20532;-78
2022/01/08 07:53:26;;;;;;;9.40;4.93;;;0.60;99.90;;;;;;5092580;28;20051;-79
2022/01/08 07:55:51;;;;;;;13.88;6.20;;;0.60;99.90;;;;;;5092949;28;20532;-78
2022/01/08 07:58:21;;;;;;;14.13;5.82;;;0.70;99.90;;;;;;5092668;28;20474;-78
2022/01/08 08:00:48;;;;;;;17.50;5.15;;;0.60;99.90;;;;;;5111387;28;20101;-77
2022/01/08 08:03:14;;;;;;;18.48;6.85;;;0.80;99.90;;;;;;5093972;28;20039;-74
2022/01/08 08:05:39;;;;;;;12.38;5.50;;;0.70;99.90;;;;;;5106214;28;20040;-77
2022/01/08 08:08:05;;;;;;;36.88;7.43;;;0.80;99.90;;;;;;5074291;28;20036;-77
2022/01/08 08:10:31;;;;;;;13.43;4.20;;;0.80;99.90;;;;;;5073760;28;20202;-77
2022/01/08 08:12:56;;;;;;;8.57;5.15;;;0.70;99.90;;;;;;5091123;28;20040;-78
2022/01/08 08:15:22;;;;;;;22.92;5.22;;;0.70;99.90;;;;;;5077554;28;20084;-78
2022/01/08 08:17:48;;;;;;;12.48;5.97;;;0.80;99.90;;;;;;5099490;28;20052;-78
2022/01/08 08:20:14;;;;;;;16.95;5.10;;;0.80;99.90;;;;;;5104285;28;20040;-76
2022/01/08 08:22:40;;;;;;;22.23;6.55;;;0.90;99.90;;;;;;5079556;28;20048;-78
2022/01/08 08:25:07;;;;;;;15.25;4.82;;;1.00;99.90;;;;;;5110660;28;20043;-80
2022/01/08 08:27:33;;;;;;;16.00;5.10;;;1.00;99.90;;;;;;5077832;28;20097;-79
2022/01/08 08:29:59;;;;;;;21.05;6.95;;;1.00;99.90;;;;;;5077036;28;20478;-79
2022/01/08 08:32:24;;;;;;;13.70;4.68;;;1.00;99.90;;;;;;5109550;28;20040;-78
2022/01/08 08:34:53;;;;;;;10.90;5.63;;;1.10;99.90;;;;;;5085935;28;21505;-79
2022/01/08 08:37:19;;;;;;;10.55;4.75;;;1.20;99.90;;;;;;5100542;28;20046;-79
2022/01/08 08:39:45;;;;;;;13.93;4.18;;;1.20;99.90;;;;;;5096630;28;20040;-79
2022/01/08 08:42:11;;;;;;;15.13;5.05;;;1.30;99.90;;;;;;5092311;28;20136;-78
2022/01/08 08:44:37;;;;;;;11.57;5.15;;;1.30;99.90;;;;;;5072492;28;20044;-79
2022/01/08 08:47:04;;;;;;;10.85;4.63;;;1.30;99.90;;;;;;5105414;28;20120;-77
2022/01/08 08:49:30;;;;;;;13.15;4.93;;;1.40;99.90;;;;;;5092342;28;20043;-78
2022/01/08 08:51:55;;;;;;;14.38;4.68;;;1.50;99.90;;;;;;5104327;28;20040;-78
2022/01/08 08:54:21;;;;;;;9.90;5.05;;;1.60;99.90;;;;;;5084427;28;20047;-78
2022/01/08 08:56:46;;;;;;;17.45;4.82;;;1.70;99.90;;;;;;5075958;28;20102;-79
2022/01/08 08:59:12;;;;;;;13.32;4.70;;;1.70;99.90;;;;;;5093945;28;20525;-78
2022/01/08 09:01:38;;;;;;;12.43;4.30;;;1.70;99.90;;;;;;5074244;28;20036;-76
2022/01/08 09:04:04;;;;;;;17.02;6.78;;;1.60;99.90;;;;;;5090544;28;20044;-76
2022/01/08 09:06:30;;;;;;;9.75;4.63;;;1.70;99.90;;;;;;5072752;28;20051;-75
2022/01/08 09:08:56;;;;;;;13.65;4.82;;;1.70;99.90;;;;;;5097817;28;20071;-75
2022/01/08 09:11:22;;;;;;;12.38;5.13;;;1.60;99.90;;;;;;5057670;28;20059;-78
2022/01/08 09:13:48;;;;;;;22.25;5.63;;;1.70;99.90;;;;;;5076080;28;20074;-75
2022/01/08 09:16:14;;;;;;;12.13;4.95;;;1.70;99.90;;;;;;5089324;28;20047;-78
2022/01/08 09:18:41;;;;;;;20.00;5.28;;;1.70;99.90;;;;;;5110028;28;20036;-80
2022/01/08 09:21:07;;;;;;;12.15;5.53;;;1.70;99.90;;;;;;5110620;28;20043;-80
2022/01/08 09:23:33;;;;;;;13.18;3.72;;;1.80;99.90;;;;;;5081928;28;20047;-78
2022/01/08 09:25:59;;;;;;;14.57;5.57;;;1.80;99.90;;;;;;5072094;28;20063;-78
2022/01/08 09:28:26;;;;;;;13.20;4.85;;;2.00;99.90;;;;;;5080743;28;20502;-78
2022/01/08 09:30:52;;;;;;;37.63;5.70;;;1.90;99.90;;;;;;5089030;28;20048;-78
2022/01/08 09:33:17;;;;;;;13.35;5.53;;;2.10;99.90;;;;;;5091379;28;20040;-80
2022/01/08 09:35:43;;;;;;;11.73;4.03;;;2.10;99.90;;;;;;5094725;28;20069;-76
2022/01/08 09:38:09;;;;;;;15.05;5.88;;;2.20;99.90;;;;;;5074588;28;20047;-83
2022/01/08 09:40:35;;;;;;;8.15;4.13;;;2.30;99.90;;;;;;5072433;28;20044;-82
2022/01/08 09:43:02;;;;;;;12.27;3.95;;;2.30;99.90;;;;;;5072073;28;20047;-78
2022/01/08 09:45:28;;;;;;;8.55;4.25;;;2.30;99.90;;;;;;5098248;28;20069;-76
2022/01/08 09:47:53;;;;;;;16.40;4.97;;;2.30;99.90;;;;;;5072330;28;20513;-77
2022/01/08 09:50:19;;;;;;;18.13;5.63;;;2.40;99.90;;;;;;5091158;28;20393;-77
2022/01/08 09:52:45;;;;;;;10.35;4.97;;;2.40;99.90;;;;;;5089489;28;20039;-77
2022/01/08 09:55:10;;;;;;;9.43;4.00;;;2.50;99.90;;;;;;5072522;28;20078;-77
2022/01/08 09:57:36;;;;;;;15.02;4.60;;;2.50;99.90;;;;;;5076084;28;20047;-77
2022/01/08 10:00:10;;;;;;;12.02;3.95;;;2.50;99.90;;;;;;5069683;28;20048;-78
2022/01/08 10:02:36;;;;;;;16.35;5.05;;;2.50;99.90;;;;;;5104090;28;20043;-78
2022/01/08 10:05:15;;;;;;;9.82;4.47;;;2.60;99.90;;;;;;5056804;28;20406;-77
2022/01/08 10:07:41;;;;;;;13.95;4.07;;;2.70;99.90;;;;;;5081152;28;20088;-79
2022/01/08 10:10:17;;;;;;;24.65;6.18;;;2.70;99.90;;;;;;5075890;28;20032;-79
2022/01/08 10:12:56;;;;;;;22.83;6.55;;;2.80;99.90;;;;;;5071695;28;20063;-80
2022/01/08 10:18:28;;;;;;;7.78;4.20;;;2.80;99.90;;;;;;5072395;28;20403;-80
2022/01/08 10:20:55;;;;;;;11.20;4.47;;;2.80;99.90;;;;;;5065966;28;20036;-82
2022/01/08 10:23:22;;;;;;;7.70;3.33;;;2.80;99.90;;;;;;5097082;28;20443;-81
2022/01/08 10:26:00;;;;;;;13.65;4.22;;;2.80;99.90;;;;;;5109466;28;20044;-83
2022/01/08 10:28:38;;;;;;;14.75;3.47;;;2.80;99.90;;;;;;5098596;28;20047;-81
2022/01/08 10:31:08;;;;;;;11.52;4.10;;;2.80;99.90;;;;;;5085155;28;20050;-82
2022/01/08 10:33:34;;;;;;;16.80;4.40;;;2.90;99.90;;;;;;5101249;28;20054;-82
2022/01/08 10:35:59;;;;;;;12.93;3.80;;;2.90;99.90;;;;;;5094625;28;20044;-84
2022/01/08 10:38:29;;;;;;;18.80;4.18;;;3.00;99.90;;;;;;5095356;28;20091;-80
2022/01/08 10:40:56;;;;;;;;;;;3.00;99.90;;;;;;5082230;28;20465;-78
2022/01/08 10:43:24;;;;;;;16.83;4.93;;;3.00;99.90;;;;;;5106544;28;19926;-82
2022/01/08 10:45:51;;;;;;;37.80;5.85;;;3.00;99.90;;;;;;5099641;28;20059;-81
2022/01/08 10:48:30;;;;;;;14.80;5.25;;;3.00;99.90;;;;;;5092803;28;20425;-81
2022/01/08 10:51:11;;;;;;;14.77;3.97;;;3.10;99.90;;;;;;5110492;28;20059;-81
2022/01/08 10:54:01;;;;;;;24.98;6.25;;;3.00;99.90;;;;;;5110116;28;20043;-78
2022/01/08 10:56:31;;;;;;;13.98;5.50;;;3.10;99.90;;;;;;5077006;28;20055;-79
2022/01/08 10:59:08;;;;;;;;;;;3.10;99.90;;;;;;5084665;28;20040;-76
2022/01/08 11:01:41;;;;;;;9.23;5.03;;;3.10;99.90;;;;;;5077072;28;19950;-84
2022/01/08 11:04:08;;;;;;;12.95;5.65;;;3.10;99.90;;;;;;5077959;28;20044;-86
2022/01/08 11:06:55;;;;;;;9.70;4.43;;;3.10;99.90;;;;;;5094673;28;20044;-83
2022/01/08 11:09:23;;;;;;;13.35;5.45;;;3.20;99.90;;;;;;5104065;28;20064;-81
2022/01/08 11:11:50;;;;;;;15.10;5.75;;;3.20;99.90;;;;;;5091702;28;20083;-82
2022/01/08 11:14:59;;;;;;;10.77;5.57;;;3.20;99.90;;;;;;5093661;28;20044;-83
2022/01/08 11:17:41;;;;;;;15.05;4.97;;;3.30;99.90;;;;;;5068187;28;20109;-82
2022/01/08 11:20:12;;;;;;;16.05;4.53;;;3.30;99.90;;;;;;5104073;28;20181;-80
2022/01/08 11:22:45;;;;;;;9.63;4.43;;;3.40;99.90;;;;;;5058864;28;20549;-81
2022/01/08 11:25:14;;;;;;;8.45;4.57;;;3.40;99.90;;;;;;5074755;28;20044;-82
2022/01/08 11:28:07;;;;;;;11.65;4.85;;;3.40;99.90;;;;;;5097966;28;20075;-84
2022/01/08 11:30:36;;;;;;;24.73;8.15;;;3.40;99.90;;;;;;5075875;28;20066;-81
2022/01/08 11:33:09;;;;;;;17.90;6.47;;;3.40;99.90;;;;;;5090598;28;20131;-83
2022/01/08 11:35:36;;;;;;;15.43;5.45;;;3.50;99.90;;;;;;5086071;28;20041;-81
2022/01/08 11:38:06;;;;;;;16.67;5.50;;;3.60;99.90;;;;;;5089221;28;20063;-81
2022/01/08 11:40:32;;;;;;;12.45;5.95;;;3.50;99.90;;;;;;5099174;28;20032;-81
2022/01/08 11:43:02;;;;;;;21.25;7.45;;;3.60;99.90;;;;;;5075367;28;20052;-80
2022/01/08 11:45:38;;;;;;;;;;;3.50;99.90;;;;;;5097619;28;20142;-82
2022/01/08 11:48:07;;;;;;;10.50;4.45;;;3.50;99.90;;;;;;5086828;28;20022;-81
2022/01/08 11:50:33;;;;;;;14.40;6.35;;;3.50;99.90;;;;;;5100318;28;20040;-83
2022/01/08 11:53:15;;;;;;;10.90;4.97;;;3.60;99.90;;;;;;5107478;28;20402;-82
2022/01/08 11:55:43;;;;;;;12.18;5.53;;;3.60;99.90;;;;;;5088933;28;20505;-83
2022/01/08 11:58:30;;;;;;;14.55;6.00;;;3.50;99.90;;;;;;5081723;28;20040;-82
2022/01/08 12:00:56;;;;;;;11.15;6.55;;;3.70;99.90;;;;;;5106336;28;20428;-83
2022/01/08 12:03:32;;;;;;;16.73;6.82;;;3.70;99.90;;;;;;5061569;28;20056;-83
2022/01/08 12:06:19;;;;;;;10.25;5.88;;;3.60;99.90;;;;;;5082738;28;20467;-82
2022/01/08 12:11:46;;;;;;;14.97;7.17;;;3.70;99.90;;;;;;5105605;28;20048;-76
2022/01/08 12:14:15;;;;;;;33.78;7.03;;;3.60;99.90;;;;;;5070744;28;20043;-81
2022/01/08 12:16:42;;;;;;;25.00;7.82;;;3.70;99.90;;;;;;5075909;28;20048;-81
2022/01/08 12:19:25;;;;;;;16.92;7.35;;;3.80;99.90;;;;;;5090572;27;20031;-79
2022/01/08 12:21:51;;;;;;;13.38;7.43;;;3.70;99.90;;;;;;5104627;28;20067;-79
2022/01/08 12:24:26;;;;;;;18.48;8.27;;;3.80;99.90;;;;;;5099944;28;20063;-79
2022/01/08 12:26:53;;;;;;;21.77;9.63;;;3.70;99.90;;;;;;5103355;27;20451;-79
2022/01/08 12:29:41;;;;;;;26.90;9.60;;;3.80;99.90;;;;;;5078437;28;20478;-81
2022/01/08 12:32:33;;;;;;;15.50;7.25;;;3.80;99.90;;;;;;5097589;27;20132;-80
2022/01/08 12:35:19;;;;;;;16.60;9.68;;;3.80;99.90;;;;;;5078091;28;20039;-83
2022/01/08 12:37:54;;;;;;;13.85;8.95;;;3.70;99.90;;;;;;5074077;28;20040;-82
2022/01/08 12:40:38;;;;;;;22.33;9.00;;;3.70;99.90;;;;;;5075924;28;20077;-81
2022/01/08 12:43:22;;;;;;;17.05;9.73;;;3.60;99.90;;;;;;5094765;28;20134;-83
2022/01/08 12:45:52;;;;;;;16.15;8.20;;;3.70;99.90;;;;;;5073426;28;20060;-82
2022/01/08 12:48:19;;;;;;;17.45;9.73;;;3.70;99.90;;;;;;5110303;28;20039;-82
2022/01/08 12:50:45;;;;;;;20.33;10.43;;;3.60;99.90;;;;;;5109489;28;20520;-83
2022/01/08 12:53:17;;;;;;;33.22;10.50;;;3.50;99.90;;;;;;5102426;28;20048;-80
2022/01/08 12:55:48;;;;;;;16.48;10.15;;;3.60;99.90;;;;;;5095802;28;20893;-83
2022/01/08 12:58:19;;;;;;;16.23;9.90;;;3.60;99.90;;;;;;5093037;28;20047;-82
2022/01/08 13:01:09;;;;;;;15.02;9.38;;;3.60;99.90;;;;;;5097120;28;20465;-84
2022/01/08 13:03:36;;;;;;;15.88;10.70;;;3.60;99.90;;;;;;5065021;28;20397;-81
2022/01/08 13:06:13;;;;;;;19.35;13.00;;;3.50;99.90;;;;;;5078709;28;20494;-79
2022/01/08 13:08:44;;;;;;;13.63;10.57;;;3.60;99.90;;;;;;5107366;28;20045;-80
2022/01/08 13:11:12;;;;;;;13.35;11.45;;;3.50;99.90;;;;;;5110306;28;20039;-80
2022/01/08 13:13:46;;;;;;;14.82;12.13;;;3.60;99.90;;;;;;5065793;28;20481;-78
2022/01/08 13:16:12;;;;;;;20.23;12.88;;;3.50;99.90;;;;;;5113453;28;20047;-79
2022/01/08 13:18:38;;;;;;;20.55;12.68;;;3.60;99.90;;;;;;5107055;28;20054;-78
2022/01/08 13:21:06;;;;;;;19.52;13.98;;;3.50;99.90;;;;;;5113003;28;20449;-78
2022/01/08 13:23:32;;;;;;;17.17;12.90;;;3.60;99.90;;;;;;5117823;28;20073;-80
2022/01/08 13:25:58;;;;;;;19.15;14.10;;;3.60;99.90;;;;;;5112876;28;20044;-77
2022/01/08 13:28:26;;;;;;;17.63;12.50;;;3.60;99.90;;;;;;5100410;28;20077;-80